Time;durP1;ratioP1;P1;durP2;ratioP2;P2;SDS_P1;SDS_P2;PMS_P1;PMS_P2;Temp;Humidity;BMP_temperature;BMP_pressure;BME280_temperature;BME280_humidity;BME280_pressure;Samples;Min_cycle;Max_cycle;Signal;HPM_P1;HPM_P2
2024/04/06 00:00:11;;;;;;;3.17;1.20;;;;;;;;;;5039740;28;20057;-62
2024/04/06 00:02:38;;;;;;;2.20;0.88;;;;;;;;;;5044010;28;20045;-61
2024/04/06 00:05:07;;;;;;;3.35;1.10;;;;;;;;;;5036131;28;20053;-61
2024/04/06 00:07:33;;;;;;;4.18;1.38;;;;;;;;;;5041467;28;20061;-61
2024/04/06 00:10:00;;;;;;;3.90;1.10;;;;;;;;;;5042082;28;20052;-61
2024/04/06 00:12:26;;;;;;;2.97;0.90;;;;;;;;;;5040186;28;20049;-61
2024/04/06 00:14:53;;;;;;;2.33;0.93;;;;;;;;;;5040016;28;20045;-62
2024/04/06 00:17:21;;;;;;;3.10;1.27;;;;;;;;;;5044531;28;20049;-62
2024/04/06 00:19:48;;;;;;;2.90;1.10;;;;;;;;;;5037359;28;20060;-61
2024/04/06 00:22:14;;;;;;;3.45;1.00;;;;;;;;;;5042128;28;20056;-61
2024/04/06 00:24:40;;;;;;;2.88;1.08;;;;;;;;;;5052270;28;20052;-62
2024/04/06 00:27:06;;;;;;;2.25;0.90;;;;;;;;;;5036642;28;20060;-61
2024/04/06 00:29:33;;;;;;;1.90;1.17;;;;;;;;;;5041982;28;20052;-62
2024/04/06 00:31:59;;;;;;;1.95;0.93;;;;;;;;;;5043596;28;20049;-61
2024/04/06 00:34:27;;;;;;;2.17;1.08;;;;;;;;;;5042301;28;20102;-62
2024/04/06 00:36:54;;;;;;;2.22;1.00;;;;;;;;;;5048861;28;20046;-61
2024/04/06 00:39:21;;;;;;;3.50;1.10;;;;;;;;;;5032262;28;20053;-62
2024/04/06 00:41:47;;;;;;;2.33;1.13;;;;;;;;;;5032036;28;20487;-61
2024/04/06 00:44:14;;;;;;;1.88;1.13;;;;;;;;;;5035868;28;20051;-61
2024/04/06 00:46:40;;;;;;;4.78;1.30;;;;;;;;;;5038143;28;20064;-61
2024/04/06 00:49:07;;;;;;;3.17;1.23;;;;;;;;;;5048881;28;20052;-61
2024/04/06 00:51:35;;;;;;;2.83;1.30;;;;;;;;;;5035705;28;20479;-62
2024/04/06 00:54:02;;;;;;;3.10;1.10;;;;;;;;;;5036361;28;20474;-62
2024/04/06 00:56:28;;;;;;;2.50;1.23;;;;;;;;;;5041063;28;20053;-62
2024/04/06 00:58:54;;;;;;;2.90;1.02;;;;;;;;;;5042287;28;20056;-62
2024/04/06 01:01:20;;;;;;;2.60;1.10;;;;;;;;;;5039571;28;20057;-62
2024/04/06 01:03:47;;;;;;;3.13;1.17;;;;;;;;;;5045061;28;20049;-61
2024/04/06 01:06:13;;;;;;;3.50;1.20;;;;;;;;;;5032058;28;20095;-61
2024/04/06 01:08:42;;;;;;;2.40;1.20;;;;;;;;;;5032656;28;20529;-62
2024/04/06 01:11:08;;;;;;;2.70;1.23;;;;;;;;;;5042083;28;20470;-62
2024/04/06 01:13:35;;;;;;;3.20;1.23;;;;;;;;;;5044738;28;20063;-61
2024/04/06 01:16:01;;;;;;;1.95;1.13;;;;;;;;;;5043760;28;20401;-61
2024/04/06 01:18:28;;;;;;;2.33;1.20;;;;;;;;;;5049494;28;20044;-61
2024/04/06 01:20:57;;;;;;;4.45;1.70;;;;;;;;;;5054735;28;20057;-62
2024/04/06 01:23:23;;;;;;;2.35;1.20;;;;;;;;;;5035638;28;20045;-61
2024/04/06 01:25:51;;;;;;;3.85;1.40;;;;;;;;;;5035562;28;20049;-61
2024/04/06 01:28:17;;;;;;;4.55;1.48;;;;;;;;;;5041742;28;20045;-61
2024/04/06 01:30:43;;;;;;;2.78;1.30;;;;;;;;;;5037972;28;20061;-61
2024/04/06 01:33:10;;;;;;;4.20;1.50;;;;;;;;;;5043235;28;20046;-62
2024/04/06 01:35:36;;;;;;;3.63;1.23;;;;;;;;;;5050015;28;20056;-61
2024/04/06 01:38:03;;;;;;;3.95;1.50;;;;;;;;;;5035978;28;20467;-61
2024/04/06 01:40:29;;;;;;;3.13;1.40;;;;;;;;;;5035146;28;20045;-61
2024/04/06 01:42:57;;;;;;;4.78;1.58;;;;;;;;;;5034652;28;20482;-62
2024/04/06 01:45:23;;;;;;;3.00;1.52;;;;;;;;;;5039282;28;20482;-61
2024/04/06 01:47:50;;;;;;;3.17;1.38;;;;;;;;;;5052020;28;20051;-62
2024/04/06 01:50:15;;;;;;;2.97;1.58;;;;;;;;;;5055171;28;20064;-61
2024/04/06 01:52:44;;;;;;;3.05;1.40;;;;;;;;;;5035157;28;20045;-61
2024/04/06 01:55:09;;;;;;;3.38;1.33;;;;;;;;;;5039534;28;20057;-61
2024/04/06 01:57:36;;;;;;;2.83;1.40;;;;;;;;;;5048302;28;20049;-61
2024/04/06 02:00:08;;;;;;;3.83;1.55;;;;;;;;;;5052709;28;20049;-61
2024/04/06 02:02:34;;;;;;;3.88;1.60;;;;;;;;;;5054660;28;20052;-61
2024/04/06 02:05:00;;;;;;;2.35;1.27;;;;;;;;;;5052683;28;20057;-61
2024/04/06 02:07:27;;;;;;;3.95;1.52;;;;;;;;;;5041538;28;20107;-62
2024/04/06 02:09:53;;;;;;;2.45;1.27;;;;;;;;;;5042305;28;20053;-62
2024/04/06 02:12:19;;;;;;;2.80;1.48;;;;;;;;;;5047367;28;20060;-61
2024/04/06 02:14:47;;;;;;;3.97;1.70;;;;;;;;;;5040404;28;20068;-61
2024/04/06 02:17:16;;;;;;;3.50;1.75;;;;;;;;;;5044393;28;20406;-62
2024/04/06 02:19:41;;;;;;;5.03;1.60;;;;;;;;;;5047891;28;20049;-61
2024/04/06 02:22:08;;;;;;;3.40;1.30;;;;;;;;;;5046134;28;20395;-62
2024/04/06 02:24:34;;;;;;;3.20;1.25;;;;;;;;;;5046623;28;20403;-61
2024/04/06 02:27:01;;;;;;;2.10;1.20;;;;;;;;;;5045153;28;20379;-61
2024/04/06 02:29:27;;;;;;;2.70;1.20;;;;;;;;;;5038398;28;20056;-61
2024/04/06 02:31:54;;;;;;;3.70;1.63;;;;;;;;;;5034028;28;20045;-61
2024/04/06 02:34:21;;;;;;;2.70;1.58;;;;;;;;;;5034037;28;20061;-61
2024/04/06 02:36:48;;;;;;;3.00;1.50;;;;;;;;;;5049069;28;20060;-62
2024/04/06 02:39:15;;;;;;;4.05;1.52;;;;;;;;;;5034545;28;20056;-62
2024/04/06 02:41:41;;;;;;;3.75;1.45;;;;;;;;;;5033826;28;20054;-62
2024/04/06 02:44:07;;;;;;;3.33;1.38;;;;;;;;;;5040711;28;20052;-61
2024/04/06 02:46:34;;;;;;;2.83;1.58;;;;;;;;;;5040871;28;20119;-62
2024/04/06 02:49:00;;;;;;;4.50;1.50;;;;;;;;;;5042681;28;20418;-62
2024/04/06 02:51:28;;;;;;;2.03;1.40;;;;;;;;;;5054219;28;20053;-62
2024/04/06 02:53:54;;;;;;;3.13;1.40;;;;;;;;;;5046364;28;20048;-66
2024/04/06 02:56:21;;;;;;;3.05;1.50;;;;;;;;;;5049571;28;20055;-61
2024/04/06 02:58:47;;;;;;;4.65;1.50;;;;;;;;;;5039195;28;20056;-62
2024/04/06 03:01:14;;;;;;;2.50;1.40;;;;;;;;;;5049840;28;20045;-61
2024/04/06 03:03:40;;;;;;;3.13;1.30;;;;;;;;;;5050588;28;20049;-61
2024/04/06 03:06:07;;;;;;;2.75;1.38;;;;;;;;;;5039517;28;20091;-62
2024/04/06 03:08:34;;;;;;;4.15;1.67;;;;;;;;;;5046489;28;20057;-62
2024/04/06 03:11:01;;;;;;;3.20;1.30;;;;;;;;;;5049266;28;20048;-61
2024/04/06 03:13:27;;;;;;;3.53;1.67;;;;;;;;;;5022415;28;20057;-61
2024/04/06 03:15:54;;;;;;;2.60;1.10;;;;;;;;;;5044624;28;20056;-61
2024/04/06 03:18:19;;;;;;;2.50;1.50;;;;;;;;;;5050305;28;20128;-61
2024/04/06 03:20:46;;;;;;;5.18;1.30;;;;;;;;;;5043846;28;20057;-62
2024/04/06 03:23:13;;;;;;;3.42;1.10;;;;;;;;;;5050569;28;20155;-62
2024/04/06 03:25:41;;;;;;;2.95;1.40;;;;;;;;;;5049092;28;20049;-62
2024/04/06 03:28:07;;;;;;;4.07;1.52;;;;;;;;;;5047241;28;20495;-61
2024/04/06 03:30:33;;;;;;;2.13;1.20;;;;;;;;;;5052505;28;20081;-61
2024/04/06 03:32:59;;;;;;;2.15;1.20;;;;;;;;;;5050944;28;20053;-61
2024/04/06 03:35:26;;;;;;;2.22;1.17;;;;;;;;;;5033235;28;20114;-62
2024/04/06 03:37:53;;;;;;;3.72;1.35;;;;;;;;;;5040802;28;20053;-63
2024/04/06 03:40:19;;;;;;;2.85;1.33;;;;;;;;;;5051059;28;20063;-62
2024/04/06 03:42:55;;;;;;;3.55;1.48;;;;;;;;;;5033990;28;20412;-62
2024/04/06 03:45:21;;;;;;;2.88;1.40;;;;;;;;;;5032830;28;20053;-61
2024/04/06 03:47:48;;;;;;;3.47;1.58;;;;;;;;;;5032866;28;20487;-62
2024/04/06 03:50:14;;;;;;;4.32;1.48;;;;;;;;;;5047971;28;20061;-62
2024/04/06 03:52:40;;;;;;;3.65;1.60;;;;;;;;;;5047157;28;20513;-62
2024/04/06 03:55:06;;;;;;;4.32;1.42;;;;;;;;;;5052319;28;20057;-61
2024/04/06 03:57:33;;;;;;;5.07;1.55;;;;;;;;;;5042965;28;20134;-61
2024/04/06 04:00:00;;;;;;;5.63;1.80;;;;;;;;;;5045516;28;20406;-62
2024/04/06 04:02:27;;;;;;;2.97;1.25;;;;;;;;;;5050599;28;20041;-61
2024/04/06 04:04:53;;;;;;;2.50;1.10;;;;;;;;;;5050871;28;20052;-61
2024/04/06 04:07:20;;;;;;;3.13;1.40;;;;;;;;;;5052047;28;20084;-62
2024/04/06 04:09:47;;;;;;;6.05;1.40;;;;;;;;;;5036004;28;20065;-62
2024/04/06 04:12:13;;;;;;;5.50;1.60;;;;;;;;;;5028155;28;20048;-61
2024/04/06 04:14:39;;;;;;;2.80;1.60;;;;;;;;;;5036848;28;20434;-61
2024/04/06 04:17:06;;;;;;;3.45;1.50;;;;;;;;;;5047847;28;20057;-61
2024/04/06 04:19:33;;;;;;;2.67;1.10;;;;;;;;;;5046066;28;20059;-61
2024/04/06 04:21:59;;;;;;;5.28;1.40;;;;;;;;;;5048294;28;20080;-61
2024/04/06 04:24:26;;;;;;;3.20;1.35;;;;;;;;;;5049745;28;20077;-61
2024/04/06 04:26:52;;;;;;;3.03;1.30;;;;;;;;;;5050160;28;20049;-62
2024/04/06 04:29:19;;;;;;;2.63;1.30;;;;;;;;;;5033154;28;20475;-62
2024/04/06 04:31:44;;;;;;;2.45;1.40;;;;;;;;;;5032419;28;20053;-61
2024/04/06 04:34:12;;;;;;;2.78;1.40;;;;;;;;;;5032086;28;20053;-61
2024/04/06 04:36:38;;;;;;;3.25;1.20;;;;;;;;;;5046009;28;20509;-61
2024/04/06 04:39:05;;;;;;;4.22;1.35;;;;;;;;;;5050143;28;20045;-62
2024/04/06 04:41:31;;;;;;;3.08;1.60;;;;;;;;;;5017010;28;20399;-61
2024/04/06 04:43:58;;;;;;;2.95;1.40;;;;;;;;;;5033158;28;20049;-61
2024/04/06 04:46:24;;;;;;;2.72;1.40;;;;;;;;;;5044463;28;20049;-61
2024/04/06 04:48:54;;;;;;;3.35;1.50;;;;;;;;;;5053880;28;20049;-61
2024/04/06 04:51:21;;;;;;;3.55;1.35;;;;;;;;;;5041042;28;20048;-61
2024/04/06 04:53:48;;;;;;;3.92;1.50;;;;;;;;;;5051291;28;20056;-62
2024/04/06 04:56:14;;;;;;;2.03;1.27;;;;;;;;;;5048083;28;20402;-61
2024/04/06 04:58:40;;;;;;;3.40;1.50;;;;;;;;;;5041360;28;20061;-62
2024/04/06 05:01:06;;;;;;;2.38;1.30;;;;;;;;;;5033495;28;20049;-61
2024/04/06 05:03:34;;;;;;;2.17;1.30;;;;;;;;;;5043446;28;20052;-61
2024/04/06 05:05:59;;;;;;;3.05;1.50;;;;;;;;;;5051938;28;20386;-61
2024/04/06 05:08:28;;;;;;;3.30;1.48;;;;;;;;;;5050657;28;21636;-61
2024/04/06 05:10:53;;;;;;;2.42;1.45;;;;;;;;;;5039620;28;20052;-61
2024/04/06 05:13:20;;;;;;;2.38;1.60;;;;;;;;;;5034586;28;20124;-62
2024/04/06 05:15:47;;;;;;;3.35;1.40;;;;;;;;;;5035417;28;20057;-62
2024/04/06 05:18:14;;;;;;;3.20;1.50;;;;;;;;;;5037862;28;20057;-61
2024/04/06 05:20:39;;;;;;;4.60;2.05;;;;;;;;;;5042537;28;20044;-61
2024/04/06 05:23:06;;;;;;;3.95;1.80;;;;;;;;;;5034389;28;20049;-61
2024/04/06 05:25:33;;;;;;;2.72;1.60;;;;;;;;;;5034841;28;20067;-61
2024/04/06 05:28:00;;;;;;;2.80;1.60;;;;;;;;;;5035192;28;20064;-62
2024/04/06 05:30:26;;;;;;;3.67;1.50;;;;;;;;;;5039907;28;20064;-61
2024/04/06 05:32:53;;;;;;;2.58;1.60;;;;;;;;;;5051574;28;20081;-62
2024/04/06 05:35:19;;;;;;;2.97;1.40;;;;;;;;;;5053481;28;20052;-62
2024/04/06 05:37:45;;;;;;;3.03;1.45;;;;;;;;;;5048637;28;20055;-61
2024/04/06 05:40:11;;;;;;;5.07;1.40;;;;;;;;;;5050662;28;20049;-61
2024/04/06 05:42:39;;;;;;;4.50;1.63;;;;;;;;;;5053563;28;20463;-61
2024/04/06 05:45:07;;;;;;;3.20;1.50;;;;;;;;;;5036044;28;20060;-62
2024/04/06 05:47:34;;;;;;;3.92;1.55;;;;;;;;;;5040369;28;20053;-62
2024/04/06 05:50:01;;;;;;;16.88;3.42;;;;;;;;;;5050465;28;20052;-62
2024/04/06 05:52:27;;;;;;;18.40;4.13;;;;;;;;;;5051899;28;20044;-61
2024/04/06 05:54:53;;;;;;;4.78;2.22;;;;;;;;;;5044995;28;20045;-62
2024/04/06 05:57:20;;;;;;;3.50;1.85;;;;;;;;;;5042306;28;20088;-62
2024/04/06 05:59:47;;;;;;;2.22;1.50;;;;;;;;;;5033501;28;20491;-65
2024/04/06 06:02:14;;;;;;;3.80;1.70;;;;;;;;;;5048879;28;20056;-62
2024/04/06 06:04:40;;;;;;;4.22;1.65;;;;;;;;;;5051805;28;20049;-62
2024/04/06 06:07:07;;;;;;;2.92;1.77;;;;;;;;;;5047511;28;20750;-61
2024/04/06 06:09:33;;;;;;;4.60;1.73;;;;;;;;;;5050195;28;20061;-61
2024/04/06 06:11:59;;;;;;;7.25;2.28;;;;;;;;;;5048509;28;20471;-62
2024/04/06 06:14:27;;;;;;;6.88;2.22;;;;;;;;;;5041382;28;20049;-62
2024/04/06 06:16:55;;;;;;;6.18;1.95;;;;;;;;;;5044934;28;20519;-61
2024/04/06 06:19:21;;;;;;;9.85;2.72;;;;;;;;;;5042582;28;20049;-62
2024/04/06 06:21:48;;;;;;;14.93;3.70;;;;;;;;;;5033717;28;20076;-62
2024/04/06 06:24:14;;;;;;;15.70;4.32;;;;;;;;;;5033789;28;20073;-62
2024/04/06 06:26:40;;;;;;;7.40;3.33;;;;;;;;;;5044803;28;20124;-39
2024/04/06 06:29:07;;;;;;;5.03;2.80;;;;;;;;;;5048342;28;20053;-39
2024/04/06 06:31:33;;;;;;;5.20;2.40;;;;;;;;;;5051083;28;20084;-39
2024/04/06 06:34:01;;;;;;;7.35;2.40;;;;;;;;;;5035940;28;20056;-39
2024/04/06 06:36:27;;;;;;;5.90;2.70;;;;;;;;;;5034574;28;20402;-64
2024/04/06 06:38:55;;;;;;;6.38;2.72;;;;;;;;;;5033877;28;20054;-65
2024/04/06 06:41:22;;;;;;;5.18;2.45;;;;;;;;;;5033704;28;20052;-64
2024/04/06 06:43:47;;;;;;;4.80;2.85;;;;;;;;;;5043411;28;20042;-66
2024/04/06 06:46:14;;;;;;;5.00;3.42;;;;;;;;;;5042596;28;20048;-66
2024/04/06 06:48:40;;;;;;;5.65;3.80;;;;;;;;;;5053554;28;20052;-64
2024/04/06 06:51:08;;;;;;;3.90;2.72;;;;;;;;;;5043285;28;20544;-65
2024/04/06 06:53:34;;;;;;;4.32;2.15;;;;;;;;;;5041521;28;20041;-64
2024/04/06 06:56:02;;;;;;;5.75;1.85;;;;;;;;;;5047137;28;20052;-64
2024/04/06 06:58:28;;;;;;;6.10;2.10;;;;;;;;;;5037720;28;20045;-64
2024/04/06 07:00:54;;;;;;;6.78;2.50;;;;;;;;;;5041914;28;20052;-64
2024/04/06 07:03:20;;;;;;;6.00;2.33;;;;;;;;;;5038973;28;20045;-64
2024/04/06 07:05:47;;;;;;;4.88;1.98;;;;;;;;;;5040594;28;20055;-64
2024/04/06 07:08:14;;;;;;;4.13;1.75;;;;;;;;;;5035943;28;20057;-65
2024/04/06 07:10:41;;;;;;;6.75;2.10;;;;;;;;;;5037930;28;20068;-65
2024/04/06 07:13:07;;;;;;;4.70;2.33;;;;;;;;;;5035530;28;20045;-65
2024/04/06 07:15:33;;;;;;;5.72;1.88;;;;;;;;;;5032558;28;20106;-65
2024/04/06 07:17:59;;;;;;;4.43;1.70;;;;;;;;;;5041859;28;20056;-66
2024/04/06 07:20:26;;;;;;;3.63;1.50;;;;;;;;;;5041976;28;20049;-64
2024/04/06 07:22:52;;;;;;;3.38;1.60;;;;;;;;;;5029568;28;20057;-65
2024/04/06 07:25:21;;;;;;;3.00;1.60;;;;;;;;;;5042675;28;20395;-65
2024/04/06 07:27:46;;;;;;;2.92;1.60;;;;;;;;;;5032733;28;20056;-64
2024/04/06 07:30:13;;;;;;;2.65;1.60;;;;;;;;;;5042240;28;20481;-64
2024/04/06 07:32:39;;;;;;;2.83;1.30;;;;;;;;;;5046058;28;20060;-65
2024/04/06 07:35:08;;;;;;;4.47;1.80;;;;;;;;;;5047009;28;20053;-64
2024/04/06 07:37:33;;;;;;;2.92;1.52;;;;;;;;;;5020957;28;20053;-64
2024/04/06 07:40:00;;;;;;;1.85;1.10;;;;;;;;;;5037201;28;20120;-65
2024/04/06 07:42:27;;;;;;;2.97;1.33;;;;;;;;;;5053275;28;20428;-64
2024/04/06 07:44:54;;;;;;;3.88;1.52;;;;;;;;;;5042692;28;20050;-64
2024/04/06 07:47:20;;;;;;;3.97;1.45;;;;;;;;;;5036943;28;20483;-64
2024/04/06 07:49:47;;;;;;;4.40;1.63;;;;;;;;;;5036081;28;20055;-64
2024/04/06 07:52:12;;;;;;;2.92;1.45;;;;;;;;;;5039207;28;20391;-64
2024/04/06 07:54:39;;;;;;;8.27;1.60;;;;;;;;;;5040277;28;20096;-64
2024/04/06 07:57:05;;;;;;;3.55;1.30;;;;;;;;;;5042370;28;20048;-66
2024/04/06 07:59:34;;;;;;;3.15;1.52;;;;;;;;;;5040702;28;20522;-65
2024/04/06 08:02:00;;;;;;;3.15;1.35;;;;;;;;;;5033442;28;20045;-65
2024/04/06 08:04:27;;;;;;;4.03;1.20;;;;;;;;;;5028279;28;20426;-63
2024/04/06 08:06:53;;;;;;;1.90;1.05;;;;;;;;;;5043522;28;20057;-65
2024/04/06 08:09:19;;;;;;;5.13;1.48;;;;;;;;;;5040879;28;20141;-65
2024/04/06 08:11:45;;;;;;;3.03;1.40;;;;;;;;;;5032719;28;20049;-65
2024/04/06 08:14:12;;;;;;;3.45;1.60;;;;;;;;;;5030779;28;20052;-65
2024/04/06 08:16:41;;;;;;;4.72;1.65;;;;;;;;;;5030714;28;20060;-66
2024/04/06 08:19:08;;;;;;;3.63;1.23;;;;;;;;;;5034739;28;20084;-66
2024/04/06 08:21:33;;;;;;;4.00;1.38;;;;;;;;;;5039401;28;20049;-64
2024/04/06 08:24:00;;;;;;;4.78;1.20;;;;;;;;;;5038336;28;20046;-65
2024/04/06 08:26:26;;;;;;;3.25;1.35;;;;;;;;;;5031828;28;20082;-66
2024/04/06 08:28:53;;;;;;;3.08;1.25;;;;;;;;;;5042301;28;20053;-64
2024/04/06 08:31:19;;;;;;;2.53;1.20;;;;;;;;;;5043774;28;21200;-64
2024/04/06 08:33:47;;;;;;;2.72;1.40;;;;;;;;;;5038820;28;20049;-64
2024/04/06 08:36:13;;;;;;;3.03;1.60;;;;;;;;;;5050154;28;20060;-64
2024/04/06 08:38:40;;;;;;;4.15;1.40;;;;;;;;;;5044639;28;20461;-64
2024/04/06 08:41:08;;;;;;;3.38;1.30;;;;;;;;;;5049705;28;20049;-64
2024/04/06 08:43:36;;;;;;;2.67;1.33;;;;;;;;;;5056342;28;20075;-64
2024/04/06 08:46:02;;;;;;;3.10;1.27;;;;;;;;;;5050180;28;20049;-65
2024/04/06 08:48:31;;;;;;;1.83;1.00;;;;;;;;;;5038387;28;20053;-64
2024/04/06 08:50:58;;;;;;;2.55;1.33;;;;;;;;;;5045900;28;20053;-64
2024/04/06 08:53:25;;;;;;;4.38;1.65;;;;;;;;;;5042539;28;20053;-64
2024/04/06 08:55:52;;;;;;;7.15;1.73;;;;;;;;;;5046634;28;20060;-64
2024/04/06 08:58:19;;;;;;;4.13;1.30;;;;;;;;;;5047985;28;20052;-64
2024/04/06 09:00:47;;;;;;;3.15;1.23;;;;;;;;;;5038242;28;20053;-65
2024/04/06 09:03:14;;;;;;;2.83;1.17;;;;;;;;;;5038344;28;20425;-65
2024/04/06 09:05:41;;;;;;;2.67;1.20;;;;;;;;;;5037665;28;20068;-65
2024/04/06 09:08:09;;;;;;;3.80;1.23;;;;;;;;;;5042552;28;20056;-64
2024/04/06 09:10:35;;;;;;;2.83;1.25;;;;;;;;;;5044093;28;20083;-65
2024/04/06 09:13:02;;;;;;;2.30;1.20;;;;;;;;;;5048162;28;20049;-65
2024/04/06 09:15:29;;;;;;;3.45;1.25;;;;;;;;;;5037828;28;20049;-65
2024/04/06 09:17:56;;;;;;;4.93;1.45;;;;;;;;;;5050508;28;20044;-65
2024/04/06 09:20:22;;;;;;;2.78;1.38;;;;;;;;;;5048754;28;20059;-64
2024/04/06 09:22:49;;;;;;;3.40;1.58;;;;;;;;;;5049257;28;20698;-65
2024/04/06 09:25:17;;;;;;;3.45;1.38;;;;;;;;;;5037972;28;20367;-65
2024/04/06 09:27:45;;;;;;;3.28;1.38;;;;;;;;;;5038214;28;20422;-65
2024/04/06 09:30:11;;;;;;;2.72;1.10;;;;;;;;;;5032907;28;20104;-65
2024/04/06 09:32:38;;;;;;;3.53;1.33;;;;;;;;;;5034099;28;20060;-64
2024/04/06 09:35:04;;;;;;;1.80;1.02;;;;;;;;;;5044653;28;20041;-65
2024/04/06 09:37:33;;;;;;;2.28;1.20;;;;;;;;;;5044421;28;20057;-65
2024/04/06 09:39:59;;;;;;;4.32;1.40;;;;;;;;;;5034139;28;20056;-65
2024/04/06 09:42:29;;;;;;;4.13;1.15;;;;;;;;;;5035289;28;20053;-65
2024/04/06 09:44:56;;;;;;;3.47;1.45;;;;;;;;;;5044669;28;20056;-65
2024/04/06 09:47:23;;;;;;;4.13;1.10;;;;;;;;;;5041885;28;20049;-65
2024/04/06 09:49:49;;;;;;;3.13;1.05;;;;;;;;;;5045614;28;20507;-65
2024/04/06 09:52:16;;;;;;;3.83;1.38;;;;;;;;;;5041619;28;20198;-65
2024/04/06 09:54:42;;;;;;;2.58;1.50;;;;;;;;;;5030916;28;20057;-66
2024/04/06 09:57:09;;;;;;;2.72;1.20;;;;;;;;;;5034638;28;20045;-65
2024/04/06 09:59:36;;;;;;;2.58;1.10;;;;;;;;;;5034648;28;20061;-67
2024/04/06 10:02:03;;;;;;;2.22;1.00;;;;;;;;;;5042920;28;20387;-66
2024/04/06 10:04:34;;;;;;;5.60;1.42;;;;;;;;;;5044885;28;20055;-65
2024/04/06 10:07:02;;;;;;;2.45;1.10;;;;;;;;;;5028927;28;20053;-66
2024/04/06 10:09:28;;;;;;;2.53;1.08;;;;;;;;;;5044196;28;20064;-65
2024/04/06 10:11:59;;;;;;;2.10;1.00;;;;;;;;;;5044139;28;20058;-66
2024/04/06 10:14:26;;;;;;;3.65;1.50;;;;;;;;;;5038029;28;20068;-65
2024/04/06 10:17:05;;;;;;;3.20;1.20;;;;;;;;;;5033971;28;20045;-65
2024/04/06 10:19:31;;;;;;;2.97;1.10;;;;;;;;;;5042440;28;20045;-65
2024/04/06 10:22:02;;;;;;;3.15;1.20;;;;;;;;;;5047569;28;20118;-65
2024/04/06 10:24:28;;;;;;;2.17;1.05;;;;;;;;;;5042356;28;20049;-64
2024/04/06 10:26:56;;;;;;;3.85;1.05;;;;;;;;;;5033446;28;20059;-64
2024/04/06 10:29:22;;;;;;;2.72;1.25;;;;;;;;;;5040673;28;20056;-64
2024/04/06 10:31:49;;;;;;;5.20;1.30;;;;;;;;;;5038562;28;20099;-65
2024/04/06 10:34:16;;;;;;;3.60;1.15;;;;;;;;;;5048187;28;20505;-65
2024/04/06 10:36:43;;;;;;;3.83;1.55;;;;;;;;;;5052400;28;20053;-64
2024/04/06 10:39:09;;;;;;;1.77;1.05;;;;;;;;;;5051862;28;20049;-65
2024/04/06 10:41:37;;;;;;;2.17;1.10;;;;;;;;;;5043036;28;20470;-63
2024/04/06 10:44:03;;;;;;;1.77;1.00;;;;;;;;;;5038951;28;20041;-65
2024/04/06 10:46:30;;;;;;;2.90;1.38;;;;;;;;;;5031269;28;20486;-65
2024/04/06 10:48:57;;;;;;;4.82;1.00;;;;;;;;;;5046348;28;20060;-65
2024/04/06 10:51:26;;;;;;;2.25;1.10;;;;;;;;;;5051523;28;20059;-65
2024/04/06 10:53:52;;;;;;;1.88;1.00;;;;;;;;;;5053831;28;20053;-65
2024/04/06 10:56:19;;;;;;;2.65;1.10;;;;;;;;;;5037459;28;20372;-65
2024/04/06 10:58:45;;;;;;;2.97;1.35;;;;;;;;;;5044348;28;20056;-63
2024/04/06 11:01:14;;;;;;;3.50;1.23;;;;;;;;;;5035002;28;20193;-64
2024/04/06 11:03:40;;;;;;;2.33;1.08;;;;;;;;;;5045850;28;20422;-64
2024/04/06 11:06:07;;;;;;;4.70;1.30;;;;;;;;;;5053682;28;20057;-65
2024/04/06 11:08:35;;;;;;;3.15;1.20;;;;;;;;;;5046660;28;20486;-64
2024/04/06 11:11:01;;;;;;;2.00;1.30;;;;;;;;;;5038133;28;20049;-64
2024/04/06 11:13:29;;;;;;;2.42;1.00;;;;;;;;;;5039613;28;20053;-63
2024/04/06 11:15:55;;;;;;;3.30;1.30;;;;;;;;;;5053690;28;20463;-64
2024/04/06 11:18:21;;;;;;;2.58;1.05;;;;;;;;;;5044500;28;20059;-64
2024/04/06 11:20:48;;;;;;;2.15;1.10;;;;;;;;;;5040936;28;20500;-64
2024/04/06 11:23:17;;;;;;;2.40;1.20;;;;;;;;;;5053574;28;20063;-64
2024/04/06 11:25:45;;;;;;;1.90;1.10;;;;;;;;;;5044362;28;20049;-64
2024/04/06 11:28:11;;;;;;;3.28;1.27;;;;;;;;;;5041317;28;20053;-64
2024/04/06 11:30:38;;;;;;;4.75;1.00;;;;;;;;;;5044297;28;20051;-64
2024/04/06 11:33:04;;;;;;;2.30;1.13;;;;;;;;;;5048359;28;20059;-64
2024/04/06 11:35:31;;;;;;;2.58;1.10;;;;;;;;;;5053013;28;20049;-65
2024/04/06 11:37:57;;;;;;;2.20;1.08;;;;;;;;;;5045643;28;20074;-66
2024/04/06 11:40:24;;;;;;;1.70;1.00;;;;;;;;;;5047912;28;20129;-66
2024/04/06 11:42:51;;;;;;;2.92;1.00;;;;;;;;;;5052974;28;20498;-64
2024/04/06 11:45:18;;;;;;;2.20;1.08;;;;;;;;;;5052662;28;20048;-64
2024/04/06 11:47:44;;;;;;;2.25;0.88;;;;;;;;;;5048205;28;20052;-64
2024/04/06 11:50:10;;;;;;;3.53;1.20;;;;;;;;;;5048905;28;20048;-65
2024/04/06 11:52:36;;;;;;;2.97;1.00;;;;;;;;;;5043724;28;20059;-64
2024/04/06 11:55:03;;;;;;;6.63;1.13;;;;;;;;;;5051575;28;20045;-64
2024/04/06 11:57:29;;;;;;;1.92;1.00;;;;;;;;;;5044659;28;20049;-64
2024/04/06 11:59:58;;;;;;;2.72;1.30;;;;;;;;;;5046463;28;20059;-64
2024/04/06 12:02:23;;;;;;;1.65;0.80;;;;;;;;;;5050584;28;20053;-64
2024/04/06 12:04:50;;;;;;;3.38;1.00;;;;;;;;;;5052078;28;20045;-64
2024/04/06 12:07:16;;;;;;;2.05;0.95;;;;;;;;;;5049880;28;20053;-64
2024/04/06 12:09:43;;;;;;;2.50;1.30;;;;;;;;;;5049383;28;20045;-64
2024/04/06 12:12:09;;;;;;;4.43;1.17;;;;;;;;;;5043270;28;20415;-65
2024/04/06 12:14:36;;;;;;;1.60;1.00;;;;;;;;;;5042216;28;20052;-64
2024/04/06 12:17:08;;;;;;;3.45;0.90;;;;;;;;;;5032597;28;20410;-64
2024/04/06 12:19:35;;;;;;;3.35;1.10;;;;;;;;;;5032246;28;20141;-64
2024/04/06 12:22:01;;;;;;;2.67;1.02;;;;;;;;;;5032190;28;20057;-64
2024/04/06 12:24:31;;;;;;;1.90;0.80;;;;;;;;;;5034054;28;20149;-64
2024/04/06 12:26:57;;;;;;;1.92;0.77;;;;;;;;;;5046111;28;20048;-63
2024/04/06 12:29:24;;;;;;;2.10;1.00;;;;;;;;;;5049211;28;20049;-64
2024/04/06 12:31:49;;;;;;;2.70;1.00;;;;;;;;;;5052672;28;20482;-64
2024/04/06 12:34:18;;;;;;;2.17;1.10;;;;;;;;;;5049915;28;20053;-65
2024/04/06 12:36:43;;;;;;;5.38;1.13;;;;;;;;;;5040518;28;20064;-64
2024/04/06 12:39:10;;;;;;;3.47;1.00;;;;;;;;;;5052293;28;20557;-64
2024/04/06 12:41:36;;;;;;;1.83;0.90;;;;;;;;;;5051675;28;20502;-64
2024/04/06 12:44:03;;;;;;;3.40;0.88;;;;;;;;;;5042742;28;20128;-63
2024/04/06 12:46:29;;;;;;;2.08;0.80;;;;;;;;;;5045686;28;20053;-64
2024/04/06 12:48:56;;;;;;;5.75;1.15;;;;;;;;;;5052029;28;20127;-64
2024/04/06 12:51:23;;;;;;;3.55;0.95;;;;;;;;;;5052270;28;20497;-63
2024/04/06 12:53:50;;;;;;;3.47;0.80;;;;;;;;;;5047895;28;20065;-64
2024/04/06 12:56:16;;;;;;;2.75;0.90;;;;;;;;;;5044037;28;20041;-64
2024/04/06 12:58:42;;;;;;;5.50;1.02;;;;;;;;;;5047210;28;20068;-64
2024/04/06 13:01:08;;;;;;;1.85;0.82;;;;;;;;;;5040841;28;20482;-60
2024/04/06 13:03:35;;;;;;;3.22;1.17;;;;;;;;;;5037399;28;20060;-61
2024/04/06 13:06:03;;;;;;;1.70;0.90;;;;;;;;;;5037691;28;20490;-60
2024/04/06 13:08:32;;;;;;;3.70;1.23;;;;;;;;;;5037087;28;20053;-62
2024/04/06 13:10:58;;;;;;;2.20;1.10;;;;;;;;;;5038832;28;20049;-63
2024/04/06 13:13:25;;;;;;;2.85;0.98;;;;;;;;;;5035689;28;20049;-62
2024/04/06 13:15:51;;;;;;;3.33;1.15;;;;;;;;;;5034548;28;20053;-61
2024/04/06 13:18:18;;;;;;;1.50;0.80;;;;;;;;;;5044983;28;20056;-62
2024/04/06 13:20:47;;;;;;;2.42;1.17;;;;;;;;;;5035930;28;20054;-63
2024/04/06 13:23:13;;;;;;;2.20;0.75;;;;;;;;;;5034093;28;20411;-65
2024/04/06 13:25:40;;;;;;;2.67;1.08;;;;;;;;;;5044233;28;20502;-64
2024/04/06 13:28:07;;;;;;;1.88;1.08;;;;;;;;;;5034843;28;20054;-64
2024/04/06 13:30:33;;;;;;;2.10;1.30;;;;;;;;;;5032245;28;20068;-63
2024/04/06 13:33:00;;;;;;;3.88;1.00;;;;;;;;;;5033311;28;20057;-63
2024/04/06 13:35:26;;;;;;;2.75;1.00;;;;;;;;;;5037525;28;20475;-64
2024/04/06 13:37:52;;;;;;;5.30;1.23;;;;;;;;;;5039659;28;20061;-63
2024/04/06 13:40:18;;;;;;;2.45;0.90;;;;;;;;;;5044937;28;20410;-63
2024/04/06 13:42:46;;;;;;;2.17;0.90;;;;;;;;;;5054350;28;20128;-65
2024/04/06 13:45:12;;;;;;;1.80;0.93;;;;;;;;;;5034749;28;20499;-64
2024/04/06 13:47:39;;;;;;;1.90;0.90;;;;;;;;;;5034793;28;20049;-62
2024/04/06 13:50:05;;;;;;;2.72;1.10;;;;;;;;;;5034823;28;20049;-64
2024/04/06 13:52:32;;;;;;;2.58;0.80;;;;;;;;;;5037491;28;20455;-62
2024/04/06 13:54:58;;;;;;;2.33;1.02;;;;;;;;;;5046479;28;20064;-63
2024/04/06 13:57:25;;;;;;;1.88;0.82;;;;;;;;;;5049422;28;20124;-61
2024/04/06 13:59:52;;;;;;;1.75;0.93;;;;;;;;;;5054393;28;20061;-65
2024/04/06 14:02:19;;;;;;;2.22;1.10;;;;;;;;;;5054946;28;20057;-64
2024/04/06 14:04:45;;;;;;;1.70;1.00;;;;;;;;;;5050434;28;20057;-64
2024/04/06 14:07:12;;;;;;;2.42;1.00;;;;;;;;;;5052863;28;20053;-64
2024/04/06 14:09:38;;;;;;;3.72;0.98;;;;;;;;;;5042789;28;20052;-64
2024/04/06 14:12:05;;;;;;;2.97;0.85;;;;;;;;;;5047417;28;20103;-63
2024/04/06 14:14:31;;;;;;;2.08;0.77;;;;;;;;;;5046999;28;20048;-64
2024/04/06 14:17:00;;;;;;;3.88;0.80;;;;;;;;;;5048354;28;20037;-63
2024/04/06 14:19:27;;;;;;;1.60;0.90;;;;;;;;;;5050283;28;20402;-64
2024/04/06 14:21:55;;;;;;;2.15;0.95;;;;;;;;;;5054587;28;20049;-64
2024/04/06 14:24:21;;;;;;;2.60;0.90;;;;;;;;;;5051533;28;20053;-63
2024/04/06 14:26:49;;;;;;;1.55;0.80;;;;;;;;;;5051975;28;20056;-64
2024/04/06 14:29:15;;;;;;;2.85;1.05;;;;;;;;;;5054479;28;20064;-63
2024/04/06 14:31:42;;;;;;;4.93;1.00;;;;;;;;;;5053987;28;20056;-63
2024/04/06 14:34:09;;;;;;;2.05;1.02;;;;;;;;;;5052913;28;20049;-63
2024/04/06 14:36:36;;;;;;;1.30;0.70;;;;;;;;;;5050622;28;20060;-63
2024/04/06 14:39:02;;;;;;;1.95;1.00;;;;;;;;;;5052277;28;20064;-64